Terminal Aerodrome Forecast
Issued by NWS Cleveland, OH

Home | Current Version | Previous Version | Text Only | Print | Product List | Glossary On
Versions: 1 2 3 4 5 6 7 8 9 10 11 12 13 14 15 16 17
000
FTUS41 KCLE 010500 CCA
TAFYNG
TAF COR
KYNG 010545Z 0106/0206 20004KT 5SM BR OVC004
      TEMPO 0106/0109 3SM BR SCT004 OVC035
     FM010900 20004KT 4SM BR OVC003
      TEMPO 0109/0113 1SM BR SCT003 OVC025
     FM011300 22008KT 6SM BR SCT008 OVC012
      TEMPO 0113/0115 5SM HZ BKN008
     FM011500 22012KT P6SM SCT015 BKN035
      TEMPO 0115/0118 BKN015
     FM011800 22012KT P6SM BKN045
     FM020200 20009KT P6SM SCT035 BKN120=

USA.gov is the U.S. government's official web portal to all federal, state and local government web resources and services.